sensor_id;sensor_type;location;lat;lon;timestamp;temperature;humidity
3408;DHT22;1717;50.240;8.406;2022-08-25T00:01:49;23.70;52.50
3408;DHT22;1717;50.240;8.406;2022-08-25T00:04:17;23.80;52.80
3408;DHT22;1717;50.240;8.406;2022-08-25T00:06:45;23.70;52.80
3408;DHT22;1717;50.240;8.406;2022-08-25T00:09:14;23.70;53.20
3408;DHT22;1717;50.240;8.406;2022-08-25T00:11:42;23.70;53.30
3408;DHT22;1717;50.240;8.406;2022-08-25T00:14:12;23.80;53.70
3408;DHT22;1717;50.240;8.406;2022-08-25T00:16:41;23.70;54.50
3408;DHT22;1717;50.240;8.406;2022-08-25T00:19:11;23.70;55.00
3408;DHT22;1717;50.240;8.406;2022-08-25T00:21:40;23.80;55.70
3408;DHT22;1717;50.240;8.406;2022-08-25T00:24:08;23.70;56.00
3408;DHT22;1717;50.240;8.406;2022-08-25T00:26:38;23.80;56.30
3408;DHT22;1717;50.240;8.406;2022-08-25T00:29:05;23.60;56.90
3408;DHT22;1717;50.240;8.406;2022-08-25T00:31:32;23.60;56.90
3408;DHT22;1717;50.240;8.406;2022-08-25T00:34:00;23.80;57.40
3408;DHT22;1717;50.240;8.406;2022-08-25T00:36:27;23.60;58.10
3408;DHT22;1717;50.240;8.406;2022-08-25T00:38:54;23.60;58.10
3408;DHT22;1717;50.240;8.406;2022-08-25T00:41:23;23.60;58.20
3408;DHT22;1717;50.240;8.406;2022-08-25T00:43:53;23.60;58.40
3408;DHT22;1717;50.240;8.406;2022-08-25T00:46:23;23.50;58.50
3408;DHT22;1717;50.240;8.406;2022-08-25T00:48:54;23.50;58.80
3408;DHT22;1717;50.240;8.406;2022-08-25T00:51:29;23.50;59.00
3408;DHT22;1717;50.240;8.406;2022-08-25T00:53:57;23.50;59.20
3408;DHT22;1717;50.240;8.406;2022-08-25T00:56:26;23.50;59.60
3408;DHT22;1717;50.240;8.406;2022-08-25T00:58:54;23.50;59.90
3408;DHT22;1717;50.240;8.406;2022-08-25T01:01:22;23.50;60.10
3408;DHT22;1717;50.240;8.406;2022-08-25T01:03:49;23.50;61.40
3408;DHT22;1717;50.240;8.406;2022-08-25T01:06:16;23.50;60.80
3408;DHT22;1717;50.240;8.406;2022-08-25T01:08:44;23.50;61.60
3408;DHT22;1717;50.240;8.406;2022-08-25T01:11:11;23.40;61.70
3408;DHT22;1717;50.240;8.406;2022-08-25T01:13:41;23.40;62.10
3408;DHT22;1717;50.240;8.406;2022-08-25T01:16:10;23.40;62.40
3408;DHT22;1717;50.240;8.406;2022-08-25T01:18:43;23.40;62.80
3408;DHT22;1717;50.240;8.406;2022-08-25T01:21:13;23.40;63.10
3408;DHT22;1717;50.240;8.406;2022-08-25T01:23:40;23.40;63.90
3408;DHT22;1717;50.240;8.406;2022-08-25T01:26:10;23.40;64.30
3408;DHT22;1717;50.240;8.406;2022-08-25T01:28:39;23.40;64.20
3408;DHT22;1717;50.240;8.406;2022-08-25T01:31:26;23.40;64.40
3408;DHT22;1717;50.240;8.406;2022-08-25T01:33:54;23.40;64.90
3408;DHT22;1717;50.240;8.406;2022-08-25T01:36:23;23.40;64.70
3408;DHT22;1717;50.240;8.406;2022-08-25T01:38:51;23.40;65.00
3408;DHT22;1717;50.240;8.406;2022-08-25T01:41:21;23.40;65.40
3408;DHT22;1717;50.240;8.406;2022-08-25T01:43:51;23.40;65.50
3408;DHT22;1717;50.240;8.406;2022-08-25T01:46:18;23.40;65.70
3408;DHT22;1717;50.240;8.406;2022-08-25T01:48:45;23.40;65.50
3408;DHT22;1717;50.240;8.406;2022-08-25T01:51:13;23.40;65.30
3408;DHT22;1717;50.240;8.406;2022-08-25T01:53:42;23.40;65.20
3408;DHT22;1717;50.240;8.406;2022-08-25T01:56:10;23.40;65.00
3408;DHT22;1717;50.240;8.406;2022-08-25T01:58:40;23.40;64.90
3408;DHT22;1717;50.240;8.406;2022-08-25T02:01:10;23.40;64.90
3408;DHT22;1717;50.240;8.406;2022-08-25T02:03:39;23.40;65.00
3408;DHT22;1717;50.240;8.406;2022-08-25T02:06:07;23.30;64.90
3408;DHT22;1717;50.240;8.406;2022-08-25T02:08:35;23.30;65.80
3408;DHT22;1717;50.240;8.406;2022-08-25T02:11:04;23.20;64.90
3408;DHT22;1717;50.240;8.406;2022-08-25T02:13:31;23.20;64.80
3408;DHT22;1717;50.240;8.406;2022-08-25T02:15:59;23.20;65.00
3408;DHT22;1717;50.240;8.406;2022-08-25T02:18:26;23.10;64.90
3408;DHT22;1717;50.240;8.406;2022-08-25T02:20:53;23.10;65.00
3408;DHT22;1717;50.240;8.406;2022-08-25T02:23:20;23.00;64.90
3408;DHT22;1717;50.240;8.406;2022-08-25T02:25:47;23.00;65.10
3408;DHT22;1717;50.240;8.406;2022-08-25T02:28:16;22.90;65.50
3408;DHT22;1717;50.240;8.406;2022-08-25T02:30:42;22.90;65.90
3408;DHT22;1717;50.240;8.406;2022-08-25T02:33:10;22.90;66.00
3408;DHT22;1717;50.240;8.406;2022-08-25T02:35:37;22.90;66.30
3408;DHT22;1717;50.240;8.406;2022-08-25T02:38:04;22.80;66.50
3408;DHT22;1717;50.240;8.406;2022-08-25T02:40:32;22.70;66.80
3408;DHT22;1717;50.240;8.406;2022-08-25T02:42:58;22.70;67.00
3408;DHT22;1717;50.240;8.406;2022-08-25T02:45:27;22.60;67.30
3408;DHT22;1717;50.240;8.406;2022-08-25T02:47:54;22.60;67.50
3408;DHT22;1717;50.240;8.406;2022-08-25T02:50:21;22.60;67.80
3408;DHT22;1717;50.240;8.406;2022-08-25T02:52:48;22.60;68.30
3408;DHT22;1717;50.240;8.406;2022-08-25T02:55:16;22.50;68.40
3408;DHT22;1717;50.240;8.406;2022-08-25T02:57:43;22.50;68.60
3408;DHT22;1717;50.240;8.406;2022-08-25T03:00:11;22.50;68.90
3408;DHT22;1717;50.240;8.406;2022-08-25T03:02:41;22.40;69.00
3408;DHT22;1717;50.240;8.406;2022-08-25T03:05:09;22.40;69.20
3408;DHT22;1717;50.240;8.406;2022-08-25T03:07:36;22.40;69.10
3408;DHT22;1717;50.240;8.406;2022-08-25T03:10:06;22.30;69.00
3408;DHT22;1717;50.240;8.406;2022-08-25T03:12:34;22.30;69.20
3408;DHT22;1717;50.240;8.406;2022-08-25T03:15:01;22.30;69.10
3408;DHT22;1717;50.240;8.406;2022-08-25T03:17:28;22.20;70.00
3408;DHT22;1717;50.240;8.406;2022-08-25T03:19:56;22.20;69.10
3408;DHT22;1717;50.240;8.406;2022-08-25T03:22:23;22.20;69.20
3408;DHT22;1717;50.240;8.406;2022-08-25T03:24:50;22.20;69.40
3408;DHT22;1717;50.240;8.406;2022-08-25T03:27:16;22.00;69.30
3408;DHT22;1717;50.240;8.406;2022-08-25T03:29:42;22.10;69.80
3408;DHT22;1717;50.240;8.406;2022-08-25T03:32:10;22.10;70.10
3408;DHT22;1717;50.240;8.406;2022-08-25T03:34:36;22.10;70.20
3408;DHT22;1717;50.240;8.406;2022-08-25T03:37:05;22.00;70.20
3408;DHT22;1717;50.240;8.406;2022-08-25T03:39:33;22.00;70.40
3408;DHT22;1717;50.240;8.406;2022-08-25T03:42:02;21.90;70.50
3408;DHT22;1717;50.240;8.406;2022-08-25T03:44:29;21.90;70.60
3408;DHT22;1717;50.240;8.406;2022-08-25T03:46:57;21.90;70.40
3408;DHT22;1717;50.240;8.406;2022-08-25T03:49:23;21.90;70.70
3408;DHT22;1717;50.240;8.406;2022-08-25T03:51:52;21.80;70.90
3408;DHT22;1717;50.240;8.406;2022-08-25T03:54:23;21.80;71.20
3408;DHT22;1717;50.240;8.406;2022-08-25T03:56:51;21.80;71.10
3408;DHT22;1717;50.240;8.406;2022-08-25T03:59:18;21.70;71.20
3408;DHT22;1717;50.240;8.406;2022-08-25T04:01:46;21.70;71.40
3408;DHT22;1717;50.240;8.406;2022-08-25T04:04:14;21.60;71.60
3408;DHT22;1717;50.240;8.406;2022-08-25T04:06:43;21.60;72.00
3408;DHT22;1717;50.240;8.406;2022-08-25T04:09:10;21.60;72.70
3408;DHT22;1717;50.240;8.406;2022-08-25T04:11:38;21.60;72.90
3408;DHT22;1717;50.240;8.406;2022-08-25T04:14:05;21.60;72.70
3408;DHT22;1717;50.240;8.406;2022-08-25T04:16:33;21.50;73.10
3408;DHT22;1717;50.240;8.406;2022-08-25T04:19:04;21.50;73.90
3408;DHT22;1717;50.240;8.406;2022-08-25T04:21:32;21.50;73.90
3408;DHT22;1717;50.240;8.406;2022-08-25T04:23:59;21.50;74.30
3408;DHT22;1717;50.240;8.406;2022-08-25T04:26:29;21.40;74.80
3408;DHT22;1717;50.240;8.406;2022-08-25T04:29:00;21.40;75.20
3408;DHT22;1717;50.240;8.406;2022-08-25T04:31:28;21.40;75.90
3408;DHT22;1717;50.240;8.406;2022-08-25T04:33:55;21.40;76.40
3408;DHT22;1717;50.240;8.406;2022-08-25T04:36:22;21.40;76.90
3408;DHT22;1717;50.240;8.406;2022-08-25T04:38:49;21.30;77.30
3408;DHT22;1717;50.240;8.406;2022-08-25T04:41:18;21.30;77.50
3408;DHT22;1717;50.240;8.406;2022-08-25T04:43:45;21.30;77.70
3408;DHT22;1717;50.240;8.406;2022-08-25T04:46:15;21.40;77.80
3408;DHT22;1717;50.240;8.406;2022-08-25T04:48:43;21.40;77.90
3408;DHT22;1717;50.240;8.406;2022-08-25T04:51:13;21.40;78.10
3408;DHT22;1717;50.240;8.406;2022-08-25T04:53:41;21.40;78.10
3408;DHT22;1717;50.240;8.406;2022-08-25T04:56:12;21.40;78.30
3408;DHT22;1717;50.240;8.406;2022-08-25T04:58:40;21.40;78.50
3408;DHT22;1717;50.240;8.406;2022-08-25T05:01:10;21.40;78.50
3408;DHT22;1717;50.240;8.406;2022-08-25T05:03:38;21.40;78.50
3408;DHT22;1717;50.240;8.406;2022-08-25T05:06:05;21.40;78.30
3408;DHT22;1717;50.240;8.406;2022-08-25T05:08:33;21.40;78.30
3408;DHT22;1717;50.240;8.406;2022-08-25T05:11:04;21.40;78.40
3408;DHT22;1717;50.240;8.406;2022-08-25T05:13:31;21.40;78.40
3408;DHT22;1717;50.240;8.406;2022-08-25T05:15:59;21.40;78.70
3408;DHT22;1717;50.240;8.406;2022-08-25T05:18:29;21.40;78.90
3408;DHT22;1717;50.240;8.406;2022-08-25T05:21:01;21.40;78.90
3408;DHT22;1717;50.240;8.406;2022-08-25T05:23:28;21.30;79.00
3408;DHT22;1717;50.240;8.406;2022-08-25T05:25:54;21.30;79.00
3408;DHT22;1717;50.240;8.406;2022-08-25T05:28:21;21.30;79.10
3408;DHT22;1717;50.240;8.406;2022-08-25T05:30:48;21.30;79.10
3408;DHT22;1717;50.240;8.406;2022-08-25T05:33:15;21.30;79.00
3408;DHT22;1717;50.240;8.406;2022-08-25T05:35:42;21.30;78.90
3408;DHT22;1717;50.240;8.406;2022-08-25T05:38:11;21.30;78.80
3408;DHT22;1717;50.240;8.406;2022-08-25T05:40:38;21.30;78.90
3408;DHT22;1717;50.240;8.406;2022-08-25T05:43:05;21.30;78.90
3408;DHT22;1717;50.240;8.406;2022-08-25T05:45:32;21.30;79.00
3408;DHT22;1717;50.240;8.406;2022-08-25T05:47:59;21.30;79.20
3408;DHT22;1717;50.240;8.406;2022-08-25T05:50:25;21.30;79.10
3408;DHT22;1717;50.240;8.406;2022-08-25T05:52:53;21.30;79.10
3408;DHT22;1717;50.240;8.406;2022-08-25T05:55:21;21.30;79.50
3408;DHT22;1717;50.240;8.406;2022-08-25T05:57:48;21.30;79.50
3408;DHT22;1717;50.240;8.406;2022-08-25T06:00:15;21.30;79.50
3408;DHT22;1717;50.240;8.406;2022-08-25T06:02:43;21.30;79.80
3408;DHT22;1717;50.240;8.406;2022-08-25T06:05:12;21.30;80.10
3408;DHT22;1717;50.240;8.406;2022-08-25T06:07:39;21.30;80.40
3408;DHT22;1717;50.240;8.406;2022-08-25T06:10:08;21.30;80.80
3408;DHT22;1717;50.240;8.406;2022-08-25T06:12:39;21.20;81.70
3408;DHT22;1717;50.240;8.406;2022-08-25T06:15:07;21.10;82.30
3408;DHT22;1717;50.240;8.406;2022-08-25T06:17:34;21.00;82.30
3408;DHT22;1717;50.240;8.406;2022-08-25T06:20:06;21.10;83.00
3408;DHT22;1717;50.240;8.406;2022-08-25T06:22:33;21.10;83.00
3408;DHT22;1717;50.240;8.406;2022-08-25T06:25:02;21.10;83.40
3408;DHT22;1717;50.240;8.406;2022-08-25T06:27:29;20.90;83.80
3408;DHT22;1717;50.240;8.406;2022-08-25T06:29:58;21.10;83.80
3408;DHT22;1717;50.240;8.406;2022-08-25T06:32:29;21.10;83.90
3408;DHT22;1717;50.240;8.406;2022-08-25T06:34:57;21.10;84.00
3408;DHT22;1717;50.240;8.406;2022-08-25T06:37:24;21.10;84.30
3408;DHT22;1717;50.240;8.406;2022-08-25T06:39:51;21.10;84.50
3408;DHT22;1717;50.240;8.406;2022-08-25T06:42:18;21.10;84.90
3408;DHT22;1717;50.240;8.406;2022-08-25T06:44:44;21.10;86.40
3408;DHT22;1717;50.240;8.406;2022-08-25T06:47:13;21.20;86.90
3408;DHT22;1717;50.240;8.406;2022-08-25T06:49:40;21.20;87.10
3408;DHT22;1717;50.240;8.406;2022-08-25T06:52:08;21.30;87.10
3408;DHT22;1717;50.240;8.406;2022-08-25T06:54:35;21.40;87.00
3408;DHT22;1717;50.240;8.406;2022-08-25T06:57:02;21.50;86.70
3408;DHT22;1717;50.240;8.406;2022-08-25T06:59:31;21.60;86.80
3408;DHT22;1717;50.240;8.406;2022-08-25T07:01:58;21.70;86.40
3408;DHT22;1717;50.240;8.406;2022-08-25T07:04:27;21.80;86.20
3408;DHT22;1717;50.240;8.406;2022-08-25T07:06:54;21.90;85.90
3408;DHT22;1717;50.240;8.406;2022-08-25T07:09:21;22.00;86.00
3408;DHT22;1717;50.240;8.406;2022-08-25T07:11:48;22.10;85.70
3408;DHT22;1717;50.240;8.406;2022-08-25T07:14:16;22.30;86.10
3408;DHT22;1717;50.240;8.406;2022-08-25T07:16:44;22.40;85.50
3408;DHT22;1717;50.240;8.406;2022-08-25T07:19:12;22.50;85.40
3408;DHT22;1717;50.240;8.406;2022-08-25T07:21:41;22.60;84.60
3408;DHT22;1717;50.240;8.406;2022-08-25T07:24:12;22.70;84.30
3408;DHT22;1717;50.240;8.406;2022-08-25T07:26:40;22.90;83.70
3408;DHT22;1717;50.240;8.406;2022-08-25T07:29:10;23.00;83.10
3408;DHT22;1717;50.240;8.406;2022-08-25T07:31:38;23.10;82.40
3408;DHT22;1717;50.240;8.406;2022-08-25T07:34:05;23.20;81.80
3408;DHT22;1717;50.240;8.406;2022-08-25T07:36:51;23.30;81.20
3408;DHT22;1717;50.240;8.406;2022-08-25T07:39:18;23.50;80.40
3408;DHT22;1717;50.240;8.406;2022-08-25T07:41:45;23.60;79.70
3408;DHT22;1717;50.240;8.406;2022-08-25T07:44:12;23.70;79.40
3408;DHT22;1717;50.240;8.406;2022-08-25T07:46:39;23.80;78.80
3408;DHT22;1717;50.240;8.406;2022-08-25T07:49:06;23.90;78.50
3408;DHT22;1717;50.240;8.406;2022-08-25T07:51:34;24.00;78.00
3408;DHT22;1717;50.240;8.406;2022-08-25T07:54:04;24.10;77.50
3408;DHT22;1717;50.240;8.406;2022-08-25T07:56:31;24.20;77.30
3408;DHT22;1717;50.240;8.406;2022-08-25T07:58:58;24.30;76.80
3408;DHT22;1717;50.240;8.406;2022-08-25T08:01:25;24.40;76.50
3408;DHT22;1717;50.240;8.406;2022-08-25T08:03:52;24.50;76.10
3408;DHT22;1717;50.240;8.406;2022-08-25T08:06:22;24.50;75.60
3408;DHT22;1717;50.240;8.406;2022-08-25T08:08:51;24.60;75.20
3408;DHT22;1717;50.240;8.406;2022-08-25T08:11:21;24.70;74.90
3408;DHT22;1717;50.240;8.406;2022-08-25T08:13:48;24.80;74.50
3408;DHT22;1717;50.240;8.406;2022-08-25T08:16:17;24.80;74.00
3408;DHT22;1717;50.240;8.406;2022-08-25T08:18:45;24.90;73.70
3408;DHT22;1717;50.240;8.406;2022-08-25T08:21:14;24.90;73.30
3408;DHT22;1717;50.240;8.406;2022-08-25T08:23:41;24.90;73.00
3408;DHT22;1717;50.240;8.406;2022-08-25T08:26:08;25.00;72.60
3408;DHT22;1717;50.240;8.406;2022-08-25T08:28:36;25.00;72.40
3408;DHT22;1717;50.240;8.406;2022-08-25T08:31:04;25.10;72.10
3408;DHT22;1717;50.240;8.406;2022-08-25T08:33:32;25.20;71.70
3408;DHT22;1717;50.240;8.406;2022-08-25T08:36:02;25.20;71.40
3408;DHT22;1717;50.240;8.406;2022-08-25T08:38:29;25.20;71.00
3408;DHT22;1717;50.240;8.406;2022-08-25T08:41:02;25.30;70.80
3408;DHT22;1717;50.240;8.406;2022-08-25T08:43:55;25.40;70.50
3408;DHT22;1717;50.240;8.406;2022-08-25T08:46:33;25.40;70.10
3408;DHT22;1717;50.240;8.406;2022-08-25T08:49:05;25.40;69.80
3408;DHT22;1717;50.240;8.406;2022-08-25T08:51:41;25.40;69.40
3408;DHT22;1717;50.240;8.406;2022-08-25T08:54:13;25.50;69.20
3408;DHT22;1717;50.240;8.406;2022-08-25T08:56:47;25.50;68.70
3408;DHT22;1717;50.240;8.406;2022-08-25T08:59:19;25.60;68.60
3408;DHT22;1717;50.240;8.406;2022-08-25T09:01:51;25.60;68.50
3408;DHT22;1717;50.240;8.406;2022-08-25T09:04:28;25.60;68.10
3408;DHT22;1717;50.240;8.406;2022-08-25T09:06:56;25.70;67.90
3408;DHT22;1717;50.240;8.406;2022-08-25T09:09:26;25.70;67.50
3408;DHT22;1717;50.240;8.406;2022-08-25T09:12:04;25.70;67.30
3408;DHT22;1717;50.240;8.406;2022-08-25T09:14:45;25.70;67.80
3408;DHT22;1717;50.240;8.406;2022-08-25T09:17:24;25.80;66.60
3408;DHT22;1717;50.240;8.406;2022-08-25T09:20:08;25.80;66.20
3408;DHT22;1717;50.240;8.406;2022-08-25T09:22:44;25.90;66.00
3408;DHT22;1717;50.240;8.406;2022-08-25T09:25:21;25.80;65.80
3408;DHT22;1717;50.240;8.406;2022-08-25T09:27:54;25.90;65.70
3408;DHT22;1717;50.240;8.406;2022-08-25T09:30:27;25.90;65.50
3408;DHT22;1717;50.240;8.406;2022-08-25T09:32:56;25.90;65.40
3408;DHT22;1717;50.240;8.406;2022-08-25T09:35:31;25.90;65.20
3408;DHT22;1717;50.240;8.406;2022-08-25T09:38:01;26.00;64.90
3408;DHT22;1717;50.240;8.406;2022-08-25T09:40:31;26.10;64.80
3408;DHT22;1717;50.240;8.406;2022-08-25T09:43:00;26.10;64.10
3408;DHT22;1717;50.240;8.406;2022-08-25T09:45:39;26.10;63.80
3408;DHT22;1717;50.240;8.406;2022-08-25T09:48:21;26.10;63.30
3408;DHT22;1717;50.240;8.406;2022-08-25T09:50:50;26.10;63.20
3408;DHT22;1717;50.240;8.406;2022-08-25T09:53:17;26.20;62.80
3408;DHT22;1717;50.240;8.406;2022-08-25T09:55:50;26.10;62.40
3408;DHT22;1717;50.240;8.406;2022-08-25T09:58:20;26.20;62.30
3408;DHT22;1717;50.240;8.406;2022-08-25T10:01:10;26.20;61.90
3408;DHT22;1717;50.240;8.406;2022-08-25T10:04:01;26.30;61.80
3408;DHT22;1717;50.240;8.406;2022-08-25T10:06:33;26.30;61.70
3408;DHT22;1717;50.240;8.406;2022-08-25T10:09:04;26.30;61.40
3408;DHT22;1717;50.240;8.406;2022-08-25T10:11:35;26.30;61.30
3408;DHT22;1717;50.240;8.406;2022-08-25T10:14:06;26.30;61.10
3408;DHT22;1717;50.240;8.406;2022-08-25T10:16:40;26.40;61.10
3408;DHT22;1717;50.240;8.406;2022-08-25T10:19:10;26.40;60.90
3408;DHT22;1717;50.240;8.406;2022-08-25T10:21:39;26.40;60.90
3408;DHT22;1717;50.240;8.406;2022-08-25T10:24:07;26.50;60.90
3408;DHT22;1717;50.240;8.406;2022-08-25T10:26:47;26.50;60.80
3408;DHT22;1717;50.240;8.406;2022-08-25T10:29:28;26.50;60.60
3408;DHT22;1717;50.240;8.406;2022-08-25T10:32:04;26.50;60.50
3408;DHT22;1717;50.240;8.406;2022-08-25T10:34:42;26.60;60.50
3408;DHT22;1717;50.240;8.406;2022-08-25T10:37:15;26.60;60.50
3408;DHT22;1717;50.240;8.406;2022-08-25T10:39:49;26.60;60.50
3408;DHT22;1717;50.240;8.406;2022-08-25T10:42:29;26.60;60.60
3408;DHT22;1717;50.240;8.406;2022-08-25T10:45:09;26.60;60.60
3408;DHT22;1717;50.240;8.406;2022-08-25T10:51:02;26.60;60.70
3408;DHT22;1717;50.240;8.406;2022-08-25T10:53:42;26.70;60.80
3408;DHT22;1717;50.240;8.406;2022-08-25T10:56:16;26.70;60.80
3408;DHT22;1717;50.240;8.406;2022-08-25T11:02:12;26.70;60.70
3408;DHT22;1717;50.240;8.406;2022-08-25T11:04:47;26.70;60.50
3408;DHT22;1717;50.240;8.406;2022-08-25T11:07:23;26.80;60.70
3408;DHT22;1717;50.240;8.406;2022-08-25T11:09:53;26.80;60.60
3408;DHT22;1717;50.240;8.406;2022-08-25T11:12:28;26.80;60.40
3408;DHT22;1717;50.240;8.406;2022-08-25T11:14:59;26.90;60.30
3408;DHT22;1717;50.240;8.406;2022-08-25T11:17:33;27.00;60.20
3408;DHT22;1717;50.240;8.406;2022-08-25T11:20:07;27.10;60.00
3408;DHT22;1717;50.240;8.406;2022-08-25T11:22:42;27.00;59.80
3408;DHT22;1717;50.240;8.406;2022-08-25T11:25:13;27.10;59.70
3408;DHT22;1717;50.240;8.406;2022-08-25T11:27:46;27.10;59.40
3408;DHT22;1717;50.240;8.406;2022-08-25T11:30:16;27.10;59.20
3408;DHT22;1717;50.240;8.406;2022-08-25T11:32:46;27.20;59.10
3408;DHT22;1717;50.240;8.406;2022-08-25T11:35:16;27.20;58.90
3408;DHT22;1717;50.240;8.406;2022-08-25T11:37:56;27.30;58.80
3408;DHT22;1717;50.240;8.406;2022-08-25T11:40:42;27.30;58.50
3408;DHT22;1717;50.240;8.406;2022-08-25T11:43:36;27.40;58.30
3408;DHT22;1717;50.240;8.406;2022-08-25T11:46:18;27.40;58.10
3408;DHT22;1717;50.240;8.406;2022-08-25T11:48:56;27.50;58.00
3408;DHT22;1717;50.240;8.406;2022-08-25T11:51:31;27.50;57.80
3408;DHT22;1717;50.240;8.406;2022-08-25T11:54:20;27.50;57.70
3408;DHT22;1717;50.240;8.406;2022-08-25T11:57:01;27.60;57.70
3408;DHT22;1717;50.240;8.406;2022-08-25T12:00:07;27.60;57.60
3408;DHT22;1717;50.240;8.406;2022-08-25T12:02:40;27.50;57.30
3408;DHT22;1717;50.240;8.406;2022-08-25T12:05:11;27.50;57.70
3408;DHT22;1717;50.240;8.406;2022-08-25T12:08:00;27.50;57.20
3408;DHT22;1717;50.240;8.406;2022-08-25T12:11:10;27.50;57.10
3408;DHT22;1717;50.240;8.406;2022-08-25T12:13:42;27.50;57.20
3408;DHT22;1717;50.240;8.406;2022-08-25T12:16:38;27.50;57.20
3408;DHT22;1717;50.240;8.406;2022-08-25T12:19:27;27.50;57.20
3408;DHT22;1717;50.240;8.406;2022-08-25T12:21:56;27.40;57.20
3408;DHT22;1717;50.240;8.406;2022-08-25T12:24:46;27.50;57.30
3408;DHT22;1717;50.240;8.406;2022-08-25T12:27:24;27.40;57.30
3408;DHT22;1717;50.240;8.406;2022-08-25T12:29:56;27.40;57.40
3408;DHT22;1717;50.240;8.406;2022-08-25T12:32:51;27.40;57.50
3408;DHT22;1717;50.240;8.406;2022-08-25T12:35:28;27.40;57.40
3408;DHT22;1717;50.240;8.406;2022-08-25T12:37:59;27.40;57.50
3408;DHT22;1717;50.240;8.406;2022-08-25T12:40:30;27.40;57.50
3408;DHT22;1717;50.240;8.406;2022-08-25T12:43:07;27.40;57.50
3408;DHT22;1717;50.240;8.406;2022-08-25T12:45:38;27.50;57.60
3408;DHT22;1717;50.240;8.406;2022-08-25T12:48:41;27.50;57.60
3408;DHT22;1717;50.240;8.406;2022-08-25T12:51:15;27.50;57.60
3408;DHT22;1717;50.240;8.406;2022-08-25T12:53:45;27.50;57.60
3408;DHT22;1717;50.240;8.406;2022-08-25T12:56:20;27.50;57.60
3408;DHT22;1717;50.240;8.406;2022-08-25T12:58:54;27.50;57.70
3408;DHT22;1717;50.240;8.406;2022-08-25T13:01:32;27.50;57.60
3408;DHT22;1717;50.240;8.406;2022-08-25T13:04:26;27.50;57.60
3408;DHT22;1717;50.240;8.406;2022-08-25T13:07:04;27.50;57.70
3408;DHT22;1717;50.240;8.406;2022-08-25T13:10:07;27.60;57.70
3408;DHT22;1717;50.240;8.406;2022-08-25T13:12:40;27.60;57.60
3408;DHT22;1717;50.240;8.406;2022-08-25T13:15:14;27.60;57.60
3408;DHT22;1717;50.240;8.406;2022-08-25T13:17:41;27.60;57.30
3408;DHT22;1717;50.240;8.406;2022-08-25T13:20:16;27.60;57.20
3408;DHT22;1717;50.240;8.406;2022-08-25T13:22:46;27.60;57.20
3408;DHT22;1717;50.240;8.406;2022-08-25T13:25:16;27.70;57.30
3408;DHT22;1717;50.240;8.406;2022-08-25T13:27:48;27.80;57.40
3408;DHT22;1717;50.240;8.406;2022-08-25T13:30:27;27.90;57.10
3408;DHT22;1717;50.240;8.406;2022-08-25T13:32:54;28.00;56.90
3408;DHT22;1717;50.240;8.406;2022-08-25T13:35:24;28.10;56.70
3408;DHT22;1717;50.240;8.406;2022-08-25T13:37:51;28.20;56.20
3408;DHT22;1717;50.240;8.406;2022-08-25T13:40:23;28.30;55.50
3408;DHT22;1717;50.240;8.406;2022-08-25T13:42:52;28.50;55.20
3408;DHT22;1717;50.240;8.406;2022-08-25T13:45:21;28.50;55.20
3408;DHT22;1717;50.240;8.406;2022-08-25T13:47:50;28.80;55.00
3408;DHT22;1717;50.240;8.406;2022-08-25T13:50:30;28.90;54.30
3408;DHT22;1717;50.240;8.406;2022-08-25T13:52:59;29.00;54.00
3408;DHT22;1717;50.240;8.406;2022-08-25T13:55:32;29.10;53.80
3408;DHT22;1717;50.240;8.406;2022-08-25T13:58:00;29.30;53.70
3408;DHT22;1717;50.240;8.406;2022-08-25T14:00:31;29.40;53.40
3408;DHT22;1717;50.240;8.406;2022-08-25T14:03:02;29.50;53.20
3408;DHT22;1717;50.240;8.406;2022-08-25T14:05:40;29.60;52.90
3408;DHT22;1717;50.240;8.406;2022-08-25T14:08:28;29.60;52.50
3408;DHT22;1717;50.240;8.406;2022-08-25T14:11:05;29.60;52.20
3408;DHT22;1717;50.240;8.406;2022-08-25T14:13:33;29.60;52.30
3408;DHT22;1717;50.240;8.406;2022-08-25T14:16:09;29.60;52.30
3408;DHT22;1717;50.240;8.406;2022-08-25T14:18:45;29.60;52.20
3408;DHT22;1717;50.240;8.406;2022-08-25T14:21:14;29.50;52.20
3408;DHT22;1717;50.240;8.406;2022-08-25T14:23:41;29.50;52.30
3408;DHT22;1717;50.240;8.406;2022-08-25T14:26:09;29.50;52.30
3408;DHT22;1717;50.240;8.406;2022-08-25T14:28:36;29.50;52.40
3408;DHT22;1717;50.240;8.406;2022-08-25T14:31:06;29.50;52.40
3408;DHT22;1717;50.240;8.406;2022-08-25T14:33:36;29.50;52.40
3408;DHT22;1717;50.240;8.406;2022-08-25T14:36:06;29.50;51.80
3408;DHT22;1717;50.240;8.406;2022-08-25T14:38:33;29.60;52.10
3408;DHT22;1717;50.240;8.406;2022-08-25T14:41:00;29.60;51.90
3408;DHT22;1717;50.240;8.406;2022-08-25T14:43:27;29.60;51.90
3408;DHT22;1717;50.240;8.406;2022-08-25T14:45:54;29.60;51.80
3408;DHT22;1717;50.240;8.406;2022-08-25T14:48:24;29.60;51.50
3408;DHT22;1717;50.240;8.406;2022-08-25T14:50:53;29.60;51.50
3408;DHT22;1717;50.240;8.406;2022-08-25T14:53:22;29.60;50.80
3408;DHT22;1717;50.240;8.406;2022-08-25T14:55:49;29.60;51.30
3408;DHT22;1717;50.240;8.406;2022-08-25T14:58:18;29.70;51.50
3408;DHT22;1717;50.240;8.406;2022-08-25T15:00:46;29.70;51.20
3408;DHT22;1717;50.240;8.406;2022-08-25T15:03:16;29.80;51.10
3408;DHT22;1717;50.240;8.406;2022-08-25T15:05:43;29.90;50.70
3408;DHT22;1717;50.240;8.406;2022-08-25T15:08:10;29.90;50.30
3408;DHT22;1717;50.240;8.406;2022-08-25T15:10:56;30.00;50.30
3408;DHT22;1717;50.240;8.406;2022-08-25T15:13:23;29.90;50.10
3408;DHT22;1717;50.240;8.406;2022-08-25T15:15:52;29.90;50.30
3408;DHT22;1717;50.240;8.406;2022-08-25T15:18:19;29.90;50.20
3408;DHT22;1717;50.240;8.406;2022-08-25T15:20:46;29.80;50.30
3408;DHT22;1717;50.240;8.406;2022-08-25T15:23:13;29.80;50.20
3408;DHT22;1717;50.240;8.406;2022-08-25T15:25:41;29.70;50.30
3408;DHT22;1717;50.240;8.406;2022-08-25T15:28:10;29.70;50.40
3408;DHT22;1717;50.240;8.406;2022-08-25T15:30:37;29.60;50.30
3408;DHT22;1717;50.240;8.406;2022-08-25T15:33:04;29.60;50.40
3408;DHT22;1717;50.240;8.406;2022-08-25T15:35:31;29.50;50.30
3408;DHT22;1717;50.240;8.406;2022-08-25T15:37:59;29.50;50.50
3408;DHT22;1717;50.240;8.406;2022-08-25T15:40:26;29.40;50.40
3408;DHT22;1717;50.240;8.406;2022-08-25T15:42:54;29.40;50.50
3408;DHT22;1717;50.240;8.406;2022-08-25T15:45:22;29.30;50.60
3408;DHT22;1717;50.240;8.406;2022-08-25T15:47:49;29.30;50.60
3408;DHT22;1717;50.240;8.406;2022-08-25T15:50:19;29.30;50.60
3408;DHT22;1717;50.240;8.406;2022-08-25T15:52:46;29.30;50.70
3408;DHT22;1717;50.240;8.406;2022-08-25T15:55:15;29.30;50.90
3408;DHT22;1717;50.240;8.406;2022-08-25T15:57:42;29.30;50.70
3408;DHT22;1717;50.240;8.406;2022-08-25T16:00:10;29.30;50.60
3408;DHT22;1717;50.240;8.406;2022-08-25T16:02:39;29.40;50.80
3408;DHT22;1717;50.240;8.406;2022-08-25T16:05:07;29.40;50.60
3408;DHT22;1717;50.240;8.406;2022-08-25T16:07:35;29.40;50.60
3408;DHT22;1717;50.240;8.406;2022-08-25T16:10:03;29.50;50.70
3408;DHT22;1717;50.240;8.406;2022-08-25T16:12:30;29.50;50.40
3408;DHT22;1717;50.240;8.406;2022-08-25T16:14:57;29.60;50.20
3408;DHT22;1717;50.240;8.406;2022-08-25T16:17:24;29.60;50.20
3408;DHT22;1717;50.240;8.406;2022-08-25T16:19:52;29.60;50.20
3408;DHT22;1717;50.240;8.406;2022-08-25T16:22:19;29.70;49.70
3408;DHT22;1717;50.240;8.406;2022-08-25T16:24:46;29.70;49.60
3408;DHT22;1717;50.240;8.406;2022-08-25T16:27:13;29.80;49.80
3408;DHT22;1717;50.240;8.406;2022-08-25T16:29:41;29.80;49.40
3408;DHT22;1717;50.240;8.406;2022-08-25T16:32:09;29.80;49.50